sensor_id;sensor_type;location;lat;lon;timestamp;temperature;humidity
16827;DHT22;8530;49.540;8.576;2023-07-29T00:00:41;19.40;99.90
16827;DHT22;8530;49.540;8.576;2023-07-29T00:03:08;19.40;99.90
16827;DHT22;8530;49.540;8.576;2023-07-29T00:05:34;19.40;99.90
16827;DHT22;8530;49.540;8.576;2023-07-29T00:08:01;19.50;99.90
16827;DHT22;8530;49.540;8.576;2023-07-29T00:10:31;19.40;99.90
16827;DHT22;8530;49.540;8.576;2023-07-29T00:12:58;19.50;99.90
16827;DHT22;8530;49.540;8.576;2023-07-29T00:15:24;19.50;99.90
16827;DHT22;8530;49.540;8.576;2023-07-29T00:17:51;19.50;99.90
16827;DHT22;8530;49.540;8.576;2023-07-29T00:20:18;19.50;99.90
16827;DHT22;8530;49.540;8.576;2023-07-29T00:22:44;19.50;99.90
16827;DHT22;8530;49.540;8.576;2023-07-29T00:25:11;19.50;99.90
16827;DHT22;8530;49.540;8.576;2023-07-29T00:27:39;19.60;99.90
16827;DHT22;8530;49.540;8.576;2023-07-29T00:30:07;19.60;99.90
16827;DHT22;8530;49.540;8.576;2023-07-29T00:32:35;19.60;99.90
16827;DHT22;8530;49.540;8.576;2023-07-29T00:35:02;19.60;99.90
16827;DHT22;8530;49.540;8.576;2023-07-29T00:37:30;19.60;99.90
16827;DHT22;8530;49.540;8.576;2023-07-29T00:39:57;19.60;99.90
16827;DHT22;8530;49.540;8.576;2023-07-29T00:42:24;19.60;99.90
16827;DHT22;8530;49.540;8.576;2023-07-29T00:44:52;19.60;99.90
16827;DHT22;8530;49.540;8.576;2023-07-29T00:47:20;19.70;99.90
16827;DHT22;8530;49.540;8.576;2023-07-29T00:49:46;19.70;99.90
16827;DHT22;8530;49.540;8.576;2023-07-29T00:52:13;19.70;99.90
16827;DHT22;8530;49.540;8.576;2023-07-29T00:54:40;19.70;99.90
16827;DHT22;8530;49.540;8.576;2023-07-29T00:57:08;19.60;99.90
16827;DHT22;8530;49.540;8.576;2023-07-29T00:59:35;19.60;99.90
16827;DHT22;8530;49.540;8.576;2023-07-29T01:02:04;19.60;99.90
16827;DHT22;8530;49.540;8.576;2023-07-29T01:04:31;19.60;99.90
16827;DHT22;8530;49.540;8.576;2023-07-29T01:07:02;19.60;99.90
16827;DHT22;8530;49.540;8.576;2023-07-29T01:09:34;19.50;99.90
16827;DHT22;8530;49.540;8.576;2023-07-29T01:12:14;19.50;99.90
16827;DHT22;8530;49.540;8.576;2023-07-29T01:14:49;19.50;99.90
16827;DHT22;8530;49.540;8.576;2023-07-29T01:17:22;19.50;99.90
16827;DHT22;8530;49.540;8.576;2023-07-29T01:20:00;19.50;99.90
16827;DHT22;8530;49.540;8.576;2023-07-29T01:22:29;19.50;99.90
16827;DHT22;8530;49.540;8.576;2023-07-29T01:24:58;19.60;99.90
16827;DHT22;8530;49.540;8.576;2023-07-29T01:27:25;19.60;99.90
16827;DHT22;8530;49.540;8.576;2023-07-29T01:29:52;19.60;99.90
16827;DHT22;8530;49.540;8.576;2023-07-29T01:32:29;19.60;99.90
16827;DHT22;8530;49.540;8.576;2023-07-29T01:35:03;19.60;99.90
16827;DHT22;8530;49.540;8.576;2023-07-29T01:37:34;19.70;99.90
16827;DHT22;8530;49.540;8.576;2023-07-29T01:40:08;19.70;99.90
16827;DHT22;8530;49.540;8.576;2023-07-29T01:42:35;19.70;99.90
16827;DHT22;8530;49.540;8.576;2023-07-29T01:45:04;19.70;99.90
16827;DHT22;8530;49.540;8.576;2023-07-29T01:47:30;19.60;99.90
16827;DHT22;8530;49.540;8.576;2023-07-29T01:49:57;19.60;99.90
16827;DHT22;8530;49.540;8.576;2023-07-29T01:52:24;19.60;99.90
16827;DHT22;8530;49.540;8.576;2023-07-29T01:54:50;19.60;99.90
16827;DHT22;8530;49.540;8.576;2023-07-29T01:57:18;19.60;99.90
16827;DHT22;8530;49.540;8.576;2023-07-29T01:59:45;19.60;99.90
16827;DHT22;8530;49.540;8.576;2023-07-29T02:02:12;19.50;99.90
16827;DHT22;8530;49.540;8.576;2023-07-29T02:04:38;19.50;99.90
16827;DHT22;8530;49.540;8.576;2023-07-29T02:07:05;19.50;99.90
16827;DHT22;8530;49.540;8.576;2023-07-29T02:09:32;19.50;99.90
16827;DHT22;8530;49.540;8.576;2023-07-29T02:12:02;19.50;99.90
16827;DHT22;8530;49.540;8.576;2023-07-29T02:14:30;19.60;99.90
16827;DHT22;8530;49.540;8.576;2023-07-29T02:16:57;19.60;99.90
16827;DHT22;8530;49.540;8.576;2023-07-29T02:19:23;19.60;99.90
16827;DHT22;8530;49.540;8.576;2023-07-29T02:21:50;19.60;99.90
16827;DHT22;8530;49.540;8.576;2023-07-29T02:24:16;19.60;99.90
16827;DHT22;8530;49.540;8.576;2023-07-29T02:26:43;19.60;99.90
16827;DHT22;8530;49.540;8.576;2023-07-29T02:29:10;19.50;99.90
16827;DHT22;8530;49.540;8.576;2023-07-29T02:31:38;19.50;99.90
16827;DHT22;8530;49.540;8.576;2023-07-29T02:34:05;19.40;99.90
16827;DHT22;8530;49.540;8.576;2023-07-29T02:36:31;19.50;99.90
16827;DHT22;8530;49.540;8.576;2023-07-29T02:38:58;19.50;99.90
16827;DHT22;8530;49.540;8.576;2023-07-29T02:41:25;19.50;99.90
16827;DHT22;8530;49.540;8.576;2023-07-29T02:43:51;19.50;99.90
16827;DHT22;8530;49.540;8.576;2023-07-29T02:46:18;19.50;99.90
16827;DHT22;8530;49.540;8.576;2023-07-29T02:48:46;19.60;99.90
16827;DHT22;8530;49.540;8.576;2023-07-29T02:51:13;19.60;99.90
16827;DHT22;8530;49.540;8.576;2023-07-29T02:53:40;19.60;99.90
16827;DHT22;8530;49.540;8.576;2023-07-29T02:56:06;19.60;99.90
16827;DHT22;8530;49.540;8.576;2023-07-29T02:58:34;19.60;99.90
16827;DHT22;8530;49.540;8.576;2023-07-29T03:01:01;19.60;99.90
16827;DHT22;8530;49.540;8.576;2023-07-29T03:03:28;19.60;99.90
16827;DHT22;8530;49.540;8.576;2023-07-29T03:05:59;19.50;99.90
16827;DHT22;8530;49.540;8.576;2023-07-29T03:08:26;19.50;99.90
16827;DHT22;8530;49.540;8.576;2023-07-29T03:10:54;19.40;99.90
16827;DHT22;8530;49.540;8.576;2023-07-29T03:13:21;19.40;99.90
16827;DHT22;8530;49.540;8.576;2023-07-29T03:15:48;19.30;99.90
16827;DHT22;8530;49.540;8.576;2023-07-29T03:18:15;19.30;99.90
16827;DHT22;8530;49.540;8.576;2023-07-29T03:20:41;19.20;99.90
16827;DHT22;8530;49.540;8.576;2023-07-29T03:23:09;19.20;99.90
16827;DHT22;8530;49.540;8.576;2023-07-29T03:25:36;19.20;99.90
16827;DHT22;8530;49.540;8.576;2023-07-29T03:28:03;19.20;99.90
16827;DHT22;8530;49.540;8.576;2023-07-29T03:30:30;19.20;99.90
16827;DHT22;8530;49.540;8.576;2023-07-29T03:32:57;19.20;99.90
16827;DHT22;8530;49.540;8.576;2023-07-29T03:35:23;19.20;99.90
16827;DHT22;8530;49.540;8.576;2023-07-29T03:37:50;19.20;99.90
16827;DHT22;8530;49.540;8.576;2023-07-29T03:40:18;19.30;99.90
16827;DHT22;8530;49.540;8.576;2023-07-29T03:42:45;19.30;99.90
16827;DHT22;8530;49.540;8.576;2023-07-29T03:45:11;19.30;99.90
16827;DHT22;8530;49.540;8.576;2023-07-29T03:47:38;19.30;99.90
16827;DHT22;8530;49.540;8.576;2023-07-29T03:50:06;19.30;99.90
16827;DHT22;8530;49.540;8.576;2023-07-29T03:52:32;19.30;99.90
16827;DHT22;8530;49.540;8.576;2023-07-29T03:54:59;19.30;99.90
16827;DHT22;8530;49.540;8.576;2023-07-29T03:57:27;19.30;99.90
16827;DHT22;8530;49.540;8.576;2023-07-29T03:59:55;19.40;99.90
16827;DHT22;8530;49.540;8.576;2023-07-29T04:02:21;19.40;99.90
16827;DHT22;8530;49.540;8.576;2023-07-29T04:04:48;19.40;99.90
16827;DHT22;8530;49.540;8.576;2023-07-29T04:07:15;19.40;99.90
16827;DHT22;8530;49.540;8.576;2023-07-29T04:09:42;19.40;99.90
16827;DHT22;8530;49.540;8.576;2023-07-29T04:12:09;19.50;99.90
16827;DHT22;8530;49.540;8.576;2023-07-29T04:14:37;19.50;99.90
16827;DHT22;8530;49.540;8.576;2023-07-29T04:17:04;19.50;99.90
16827;DHT22;8530;49.540;8.576;2023-07-29T04:19:31;19.60;99.90
16827;DHT22;8530;49.540;8.576;2023-07-29T04:21:58;19.60;99.90
16827;DHT22;8530;49.540;8.576;2023-07-29T04:24:24;19.60;99.90
16827;DHT22;8530;49.540;8.576;2023-07-29T04:26:51;19.70;99.90
16827;DHT22;8530;49.540;8.576;2023-07-29T04:29:18;19.70;99.90
16827;DHT22;8530;49.540;8.576;2023-07-29T04:31:46;19.70;99.90
16827;DHT22;8530;49.540;8.576;2023-07-29T04:34:12;19.70;99.90
16827;DHT22;8530;49.540;8.576;2023-07-29T04:36:39;19.70;99.90
16827;DHT22;8530;49.540;8.576;2023-07-29T04:39:06;19.80;99.90
16827;DHT22;8530;49.540;8.576;2023-07-29T04:41:33;19.80;99.90
16827;DHT22;8530;49.540;8.576;2023-07-29T04:44:00;19.80;99.90
16827;DHT22;8530;49.540;8.576;2023-07-29T04:46:26;19.80;99.90
16827;DHT22;8530;49.540;8.576;2023-07-29T04:48:54;19.80;99.90
16827;DHT22;8530;49.540;8.576;2023-07-29T04:51:21;19.80;99.90
16827;DHT22;8530;49.540;8.576;2023-07-29T04:53:48;19.90;99.90
16827;DHT22;8530;49.540;8.576;2023-07-29T04:56:14;19.90;99.90
16827;DHT22;8530;49.540;8.576;2023-07-29T04:58:41;19.90;99.90
16827;DHT22;8530;49.540;8.576;2023-07-29T05:01:08;20.00;99.90
16827;DHT22;8530;49.540;8.576;2023-07-29T05:03:35;20.00;99.90
16827;DHT22;8530;49.540;8.576;2023-07-29T05:06:03;20.00;99.90
16827;DHT22;8530;49.540;8.576;2023-07-29T05:08:30;20.10;99.90
16827;DHT22;8530;49.540;8.576;2023-07-29T05:10:57;20.10;99.90
16827;DHT22;8530;49.540;8.576;2023-07-29T05:13:23;20.10;99.90
16827;DHT22;8530;49.540;8.576;2023-07-29T05:15:50;20.10;99.90
16827;DHT22;8530;49.540;8.576;2023-07-29T05:18:17;20.10;99.90
16827;DHT22;8530;49.540;8.576;2023-07-29T05:20:44;20.10;99.90
16827;DHT22;8530;49.540;8.576;2023-07-29T05:23:12;20.10;99.90
16827;DHT22;8530;49.540;8.576;2023-07-29T05:25:39;20.10;99.90
16827;DHT22;8530;49.540;8.576;2023-07-29T05:28:06;20.00;99.90
16827;DHT22;8530;49.540;8.576;2023-07-29T05:30:33;20.00;99.90
16827;DHT22;8530;49.540;8.576;2023-07-29T05:33:02;20.00;99.90
16827;DHT22;8530;49.540;8.576;2023-07-29T05:35:29;20.00;99.90
16827;DHT22;8530;49.540;8.576;2023-07-29T05:37:58;20.10;99.90
16827;DHT22;8530;49.540;8.576;2023-07-29T05:40:26;20.10;99.90
16827;DHT22;8530;49.540;8.576;2023-07-29T05:42:52;20.10;99.90
16827;DHT22;8530;49.540;8.576;2023-07-29T05:45:19;20.10;99.90
16827;DHT22;8530;49.540;8.576;2023-07-29T05:47:46;20.10;99.90
16827;DHT22;8530;49.540;8.576;2023-07-29T05:50:13;20.10;99.90
16827;DHT22;8530;49.540;8.576;2023-07-29T05:52:39;20.20;99.90
16827;DHT22;8530;49.540;8.576;2023-07-29T05:55:07;20.20;99.90
16827;DHT22;8530;49.540;8.576;2023-07-29T05:57:35;20.20;99.90
16827;DHT22;8530;49.540;8.576;2023-07-29T06:00:01;20.20;99.90
16827;DHT22;8530;49.540;8.576;2023-07-29T06:02:29;20.30;99.90
16827;DHT22;8530;49.540;8.576;2023-07-29T06:04:55;20.30;99.90
16827;DHT22;8530;49.540;8.576;2023-07-29T06:07:22;20.30;99.90
16827;DHT22;8530;49.540;8.576;2023-07-29T06:09:49;20.40;99.90
16827;DHT22;8530;49.540;8.576;2023-07-29T06:12:15;20.40;99.90
16827;DHT22;8530;49.540;8.576;2023-07-29T06:14:43;20.60;99.90
16827;DHT22;8530;49.540;8.576;2023-07-29T06:17:10;20.80;99.90
16827;DHT22;8530;49.540;8.576;2023-07-29T06:19:37;21.10;99.90
16827;DHT22;8530;49.540;8.576;2023-07-29T06:22:04;21.30;99.90
16827;DHT22;8530;49.540;8.576;2023-07-29T06:24:31;21.60;99.90
16827;DHT22;8530;49.540;8.576;2023-07-29T06:26:58;21.80;99.90
16827;DHT22;8530;49.540;8.576;2023-07-29T06:29:25;22.00;99.90
16827;DHT22;8530;49.540;8.576;2023-07-29T06:31:53;22.10;99.90
16827;DHT22;8530;49.540;8.576;2023-07-29T06:34:22;22.10;99.90
16827;DHT22;8530;49.540;8.576;2023-07-29T06:36:48;22.10;99.90
16827;DHT22;8530;49.540;8.576;2023-07-29T06:39:15;22.20;99.90
16827;DHT22;8530;49.540;8.576;2023-07-29T06:41:42;22.40;99.90
16827;DHT22;8530;49.540;8.576;2023-07-29T06:44:09;22.80;99.90
16827;DHT22;8530;49.540;8.576;2023-07-29T06:46:36;23.00;99.90
16827;DHT22;8530;49.540;8.576;2023-07-29T06:49:05;23.10;99.90
16827;DHT22;8530;49.540;8.576;2023-07-29T06:51:32;23.10;99.90
16827;DHT22;8530;49.540;8.576;2023-07-29T06:54:00;23.20;99.90
16827;DHT22;8530;49.540;8.576;2023-07-29T06:56:27;23.30;99.90
16827;DHT22;8530;49.540;8.576;2023-07-29T06:58:54;23.50;99.90
16827;DHT22;8530;49.540;8.576;2023-07-29T07:01:21;24.00;99.90
16827;DHT22;8530;49.540;8.576;2023-07-29T07:03:47;24.50;99.90
16827;DHT22;8530;49.540;8.576;2023-07-29T07:06:15;25.60;99.90
16827;DHT22;8530;49.540;8.576;2023-07-29T07:08:42;26.90;99.90
16827;DHT22;8530;49.540;8.576;2023-07-29T07:11:09;28.40;99.90
16827;DHT22;8530;49.540;8.576;2023-07-29T07:13:36;29.50;99.90
16827;DHT22;8530;49.540;8.576;2023-07-29T07:16:03;30.40;99.90
16827;DHT22;8530;49.540;8.576;2023-07-29T07:18:29;31.10;99.00
16827;DHT22;8530;49.540;8.576;2023-07-29T07:20:56;32.40;97.70
16827;DHT22;8530;49.540;8.576;2023-07-29T07:23:24;33.90;95.70
16827;DHT22;8530;49.540;8.576;2023-07-29T07:25:51;35.10;91.70
16827;DHT22;8530;49.540;8.576;2023-07-29T07:28:18;35.80;85.90
16827;DHT22;8530;49.540;8.576;2023-07-29T07:30:44;36.10;78.60
16827;DHT22;8530;49.540;8.576;2023-07-29T07:33:11;36.00;71.60
16827;DHT22;8530;49.540;8.576;2023-07-29T07:35:38;35.60;67.10
16827;DHT22;8530;49.540;8.576;2023-07-29T07:38:05;35.00;63.50
16827;DHT22;8530;49.540;8.576;2023-07-29T07:40:34;33.90;60.80
16827;DHT22;8530;49.540;8.576;2023-07-29T07:43:01;32.60;59.90
16827;DHT22;8530;49.540;8.576;2023-07-29T07:45:27;31.40;60.40
16827;DHT22;8530;49.540;8.576;2023-07-29T07:47:54;30.40;61.30
16827;DHT22;8530;49.540;8.576;2023-07-29T07:50:21;29.50;62.30
16827;DHT22;8530;49.540;8.576;2023-07-29T07:52:49;28.70;63.60
16827;DHT22;8530;49.540;8.576;2023-07-29T07:55:16;28.10;65.20
16827;DHT22;8530;49.540;8.576;2023-07-29T07:57:44;27.70;66.70
16827;DHT22;8530;49.540;8.576;2023-07-29T08:00:12;27.30;67.90
16827;DHT22;8530;49.540;8.576;2023-07-29T08:02:41;26.90;69.30
16827;DHT22;8530;49.540;8.576;2023-07-29T08:05:08;26.80;71.00
16827;DHT22;8530;49.540;8.576;2023-07-29T08:07:35;26.70;72.30
16827;DHT22;8530;49.540;8.576;2023-07-29T08:10:02;26.50;73.10
16827;DHT22;8530;49.540;8.576;2023-07-29T08:12:29;26.10;73.90
16827;DHT22;8530;49.540;8.576;2023-07-29T08:14:57;25.80;75.20
16827;DHT22;8530;49.540;8.576;2023-07-29T08:17:23;25.50;76.80
16827;DHT22;8530;49.540;8.576;2023-07-29T08:19:50;25.30;78.20
16827;DHT22;8530;49.540;8.576;2023-07-29T08:22:17;25.00;79.70
16827;DHT22;8530;49.540;8.576;2023-07-29T08:24:43;24.80;81.20
16827;DHT22;8530;49.540;8.576;2023-07-29T08:27:10;24.80;83.60
16827;DHT22;8530;49.540;8.576;2023-07-29T08:29:37;25.10;85.40
16827;DHT22;8530;49.540;8.576;2023-07-29T08:32:06;25.30;86.10
16827;DHT22;8530;49.540;8.576;2023-07-29T08:34:32;25.40;86.50
16827;DHT22;8530;49.540;8.576;2023-07-29T08:36:59;25.50;87.40
16827;DHT22;8530;49.540;8.576;2023-07-29T08:39:26;25.80;88.70
16827;DHT22;8530;49.540;8.576;2023-07-29T08:41:57;26.30;89.50
16827;DHT22;8530;49.540;8.576;2023-07-29T08:44:30;26.80;89.80
16827;DHT22;8530;49.540;8.576;2023-07-29T08:46:56;27.20;89.70
16827;DHT22;8530;49.540;8.576;2023-07-29T08:49:25;27.50;89.20
16827;DHT22;8530;49.540;8.576;2023-07-29T08:51:53;27.80;88.30
16827;DHT22;8530;49.540;8.576;2023-07-29T08:54:20;28.30;88.00
16827;DHT22;8530;49.540;8.576;2023-07-29T08:56:49;28.70;87.10
16827;DHT22;8530;49.540;8.576;2023-07-29T08:59:16;28.90;85.90
16827;DHT22;8530;49.540;8.576;2023-07-29T09:01:43;29.10;84.70
16827;DHT22;8530;49.540;8.576;2023-07-29T09:04:10;29.40;83.40
16827;DHT22;8530;49.540;8.576;2023-07-29T09:06:39;29.60;82.30
16827;DHT22;8530;49.540;8.576;2023-07-29T09:09:07;29.50;80.60
16827;DHT22;8530;49.540;8.576;2023-07-29T09:11:34;29.30;79.20
16827;DHT22;8530;49.540;8.576;2023-07-29T09:14:01;29.20;79.20
16827;DHT22;8530;49.540;8.576;2023-07-29T09:16:28;29.30;78.70
16827;DHT22;8530;49.540;8.576;2023-07-29T09:18:55;29.60;77.80
16827;DHT22;8530;49.540;8.576;2023-07-29T09:21:27;30.00;76.30
16827;DHT22;8530;49.540;8.576;2023-07-29T09:23:56;30.20;74.60
16827;DHT22;8530;49.540;8.576;2023-07-29T09:26:23;30.20;73.00
16827;DHT22;8530;49.540;8.576;2023-07-29T09:28:52;29.90;71.70
16827;DHT22;8530;49.540;8.576;2023-07-29T09:31:19;29.60;71.20
16827;DHT22;8530;49.540;8.576;2023-07-29T09:33:47;29.50;71.30
16827;DHT22;8530;49.540;8.576;2023-07-29T09:36:13;29.80;71.30
16827;DHT22;8530;49.540;8.576;2023-07-29T09:38:40;30.20;70.50
16827;DHT22;8530;49.540;8.576;2023-07-29T09:41:12;30.60;69.30
16827;DHT22;8530;49.540;8.576;2023-07-29T09:43:39;30.80;68.20
16827;DHT22;8530;49.540;8.576;2023-07-29T09:46:06;30.80;67.20
16827;DHT22;8530;49.540;8.576;2023-07-29T09:48:33;30.80;66.50
16827;DHT22;8530;49.540;8.576;2023-07-29T09:51:09;31.00;65.80
16827;DHT22;8530;49.540;8.576;2023-07-29T09:53:39;31.00;64.60
16827;DHT22;8530;49.540;8.576;2023-07-29T09:56:08;31.00;63.80
16827;DHT22;8530;49.540;8.576;2023-07-29T09:58:35;30.80;62.90
16827;DHT22;8530;49.540;8.576;2023-07-29T10:01:03;30.70;62.50
16827;DHT22;8530;49.540;8.576;2023-07-29T10:03:31;30.70;61.90
16827;DHT22;8530;49.540;8.576;2023-07-29T10:06:00;30.70;61.40
16827;DHT22;8530;49.540;8.576;2023-07-29T10:08:29;30.60;60.90
16827;DHT22;8530;49.540;8.576;2023-07-29T10:10:58;30.50;60.60
16827;DHT22;8530;49.540;8.576;2023-07-29T10:13:27;30.50;60.70
16827;DHT22;8530;49.540;8.576;2023-07-29T10:15:54;30.70;60.70
16827;DHT22;8530;49.540;8.576;2023-07-29T10:18:22;31.00;60.50
16827;DHT22;8530;49.540;8.576;2023-07-29T10:20:50;31.00;60.00
16827;DHT22;8530;49.540;8.576;2023-07-29T10:23:18;30.80;59.30
16827;DHT22;8530;49.540;8.576;2023-07-29T10:25:47;30.40;58.80
16827;DHT22;8530;49.540;8.576;2023-07-29T10:28:17;30.10;59.10
16827;DHT22;8530;49.540;8.576;2023-07-29T10:30:47;30.10;59.40
16827;DHT22;8530;49.540;8.576;2023-07-29T10:33:14;30.20;59.20
16827;DHT22;8530;49.540;8.576;2023-07-29T10:35:41;30.10;58.90
16827;DHT22;8530;49.540;8.576;2023-07-29T10:38:08;29.90;58.80
16827;DHT22;8530;49.540;8.576;2023-07-29T10:40:44;29.80;58.80
16827;DHT22;8530;49.540;8.576;2023-07-29T10:43:12;29.70;58.80
16827;DHT22;8530;49.540;8.576;2023-07-29T10:45:41;29.60;58.90
16827;DHT22;8530;49.540;8.576;2023-07-29T10:48:12;29.80;58.80
16827;DHT22;8530;49.540;8.576;2023-07-29T10:50:39;29.90;58.30
16827;DHT22;8530;49.540;8.576;2023-07-29T10:53:06;29.80;58.10
16827;DHT22;8530;49.540;8.576;2023-07-29T10:55:34;29.50;58.00
16827;DHT22;8530;49.540;8.576;2023-07-29T10:58:11;29.20;58.00
16827;DHT22;8530;49.540;8.576;2023-07-29T11:00:38;28.90;58.20
16827;DHT22;8530;49.540;8.576;2023-07-29T11:03:06;28.80;58.50
16827;DHT22;8530;49.540;8.576;2023-07-29T11:05:46;29.00;59.40
16827;DHT22;8530;49.540;8.576;2023-07-29T11:08:21;29.40;58.40
16827;DHT22;8530;49.540;8.576;2023-07-29T11:11:03;29.80;58.20
16827;DHT22;8530;49.540;8.576;2023-07-29T11:13:31;29.90;57.80
16827;DHT22;8530;49.540;8.576;2023-07-29T11:15:59;30.00;57.60
16827;DHT22;8530;49.540;8.576;2023-07-29T11:18:27;29.90;57.20
16827;DHT22;8530;49.540;8.576;2023-07-29T11:20:57;29.40;57.20
16827;DHT22;8530;49.540;8.576;2023-07-29T11:23:34;29.00;57.70
16827;DHT22;8530;49.540;8.576;2023-07-29T11:26:02;28.70;58.60
16827;DHT22;8530;49.540;8.576;2023-07-29T11:28:30;28.70;59.40
16827;DHT22;8530;49.540;8.576;2023-07-29T11:30:57;29.00;59.90
16827;DHT22;8530;49.540;8.576;2023-07-29T11:33:25;29.30;60.00
16827;DHT22;8530;49.540;8.576;2023-07-29T11:35:53;29.50;59.80
16827;DHT22;8530;49.540;8.576;2023-07-29T11:38:22;29.50;59.40
16827;DHT22;8530;49.540;8.576;2023-07-29T11:40:57;29.50;59.40
16827;DHT22;8530;49.540;8.576;2023-07-29T11:43:24;29.30;59.10
16827;DHT22;8530;49.540;8.576;2023-07-29T11:45:52;29.10;59.10
16827;DHT22;8530;49.540;8.576;2023-07-29T11:48:27;29.00;59.20
16827;DHT22;8530;49.540;8.576;2023-07-29T11:50:54;29.10;59.30
16827;DHT22;8530;49.540;8.576;2023-07-29T11:53:25;29.20;59.20
16827;DHT22;8530;49.540;8.576;2023-07-29T11:55:52;29.20;59.00
16827;DHT22;8530;49.540;8.576;2023-07-29T11:58:18;29.20;58.90
16827;DHT22;8530;49.540;8.576;2023-07-29T12:00:46;29.30;58.70
16827;DHT22;8530;49.540;8.576;2023-07-29T12:03:13;29.60;58.40
16827;DHT22;8530;49.540;8.576;2023-07-29T12:05:42;30.00;58.50
16827;DHT22;8530;49.540;8.576;2023-07-29T12:08:09;30.30;57.00
16827;DHT22;8530;49.540;8.576;2023-07-29T12:10:38;30.30;56.00
16827;DHT22;8530;49.540;8.576;2023-07-29T12:13:05;30.20;55.10
16827;DHT22;8530;49.540;8.576;2023-07-29T12:15:34;30.20;54.70
16827;DHT22;8530;49.540;8.576;2023-07-29T12:18:01;30.30;54.10
16827;DHT22;8530;49.540;8.576;2023-07-29T12:20:29;30.30;53.30
16827;DHT22;8530;49.540;8.576;2023-07-29T12:22:57;30.40;52.70
16827;DHT22;8530;49.540;8.576;2023-07-29T12:25:25;30.50;52.20
16827;DHT22;8530;49.540;8.576;2023-07-29T12:27:53;30.50;51.40
16827;DHT22;8530;49.540;8.576;2023-07-29T12:30:20;30.30;50.90
16827;DHT22;8530;49.540;8.576;2023-07-29T12:32:48;30.20;51.10
16827;DHT22;8530;49.540;8.576;2023-07-29T12:35:14;30.40;50.10
16827;DHT22;8530;49.540;8.576;2023-07-29T12:37:41;30.60;49.30
16827;DHT22;8530;49.540;8.576;2023-07-29T12:42:53;31.00;47.60
16827;DHT22;8530;49.540;8.576;2023-07-29T12:45:20;31.20;46.90
16827;DHT22;8530;49.540;8.576;2023-07-29T12:47:48;31.40;45.50
16827;DHT22;8530;49.540;8.576;2023-07-29T12:50:15;31.40;44.80
16827;DHT22;8530;49.540;8.576;2023-07-29T12:52:41;31.60;43.90
16827;DHT22;8530;49.540;8.576;2023-07-29T12:55:08;31.80;43.10
16827;DHT22;8530;49.540;8.576;2023-07-29T12:57:39;31.80;42.50
16827;DHT22;8530;49.540;8.576;2023-07-29T13:00:09;31.80;42.00
16827;DHT22;8530;49.540;8.576;2023-07-29T13:02:35;31.80;41.50
16827;DHT22;8530;49.540;8.576;2023-07-29T13:05:03;31.80;41.10
16827;DHT22;8530;49.540;8.576;2023-07-29T13:07:29;31.70;40.50
16827;DHT22;8530;49.540;8.576;2023-07-29T13:09:56;31.50;40.30
16827;DHT22;8530;49.540;8.576;2023-07-29T13:12:23;31.40;40.10
16827;DHT22;8530;49.540;8.576;2023-07-29T13:14:50;31.20;39.80
16827;DHT22;8530;49.540;8.576;2023-07-29T13:17:17;31.10;39.40
16827;DHT22;8530;49.540;8.576;2023-07-29T13:19:44;30.80;39.30
16827;DHT22;8530;49.540;8.576;2023-07-29T13:22:11;30.80;39.50
16827;DHT22;8530;49.540;8.576;2023-07-29T13:24:37;30.80;39.40
16827;DHT22;8530;49.540;8.576;2023-07-29T13:27:05;30.80;39.10
16827;DHT22;8530;49.540;8.576;2023-07-29T13:29:41;30.90;39.10
16827;DHT22;8530;49.540;8.576;2023-07-29T13:32:09;31.10;39.00
16827;DHT22;8530;49.540;8.576;2023-07-29T13:34:37;31.50;38.80
16827;DHT22;8530;49.540;8.576;2023-07-29T13:37:05;31.70;38.20
16827;DHT22;8530;49.540;8.576;2023-07-29T13:39:32;31.80;37.90
16827;DHT22;8530;49.540;8.576;2023-07-29T13:42:09;31.90;37.60
16827;DHT22;8530;49.540;8.576;2023-07-29T13:44:36;32.00;38.10
16827;DHT22;8530;49.540;8.576;2023-07-29T13:47:02;32.10;37.30
16827;DHT22;8530;49.540;8.576;2023-07-29T13:49:29;32.00;36.60
16827;DHT22;8530;49.540;8.576;2023-07-29T13:51:57;31.90;36.50
16827;DHT22;8530;49.540;8.576;2023-07-29T13:54:24;31.70;36.40
16827;DHT22;8530;49.540;8.576;2023-07-29T13:56:50;31.70;36.60
16827;DHT22;8530;49.540;8.576;2023-07-29T13:59:19;31.70;36.70
16827;DHT22;8530;49.540;8.576;2023-07-29T14:01:46;31.90;36.60
16827;DHT22;8530;49.540;8.576;2023-07-29T14:04:13;31.90;36.50
16827;DHT22;8530;49.540;8.576;2023-07-29T14:06:39;32.00;36.30
16827;DHT22;8530;49.540;8.576;2023-07-29T14:09:08;32.00;36.10
16827;DHT22;8530;49.540;8.576;2023-07-29T14:11:34;31.90;36.10
16827;DHT22;8530;49.540;8.576;2023-07-29T14:14:01;31.90;36.00
16827;DHT22;8530;49.540;8.576;2023-07-29T14:16:28;31.70;35.90
16827;DHT22;8530;49.540;8.576;2023-07-29T14:18:55;31.70;36.10
16827;DHT22;8530;49.540;8.576;2023-07-29T14:21:22;31.60;36.20
16827;DHT22;8530;49.540;8.576;2023-07-29T14:23:49;31.50;36.30
16827;DHT22;8530;49.540;8.576;2023-07-29T14:26:17;31.40;36.40
16827;DHT22;8530;49.540;8.576;2023-07-29T14:28:43;31.10;36.50
16827;DHT22;8530;49.540;8.576;2023-07-29T14:31:10;31.20;36.90
16827;DHT22;8530;49.540;8.576;2023-07-29T14:33:37;31.30;37.10
16827;DHT22;8530;49.540;8.576;2023-07-29T14:36:04;31.30;37.00
16827;DHT22;8530;49.540;8.576;2023-07-29T14:38:32;31.40;37.10
16827;DHT22;8530;49.540;8.576;2023-07-29T14:41:00;31.50;37.10
16827;DHT22;8530;49.540;8.576;2023-07-29T14:43:28;31.50;36.90
16827;DHT22;8530;49.540;8.576;2023-07-29T14:45:54;31.40;36.90
16827;DHT22;8530;49.540;8.576;2023-07-29T14:48:21;31.30;36.90
16827;DHT22;8530;49.540;8.576;2023-07-29T14:50:48;31.20;36.90
16827;DHT22;8530;49.540;8.576;2023-07-29T14:53:15;31.20;37.00
16827;DHT22;8530;49.540;8.576;2023-07-29T14:55:42;31.20;37.10
16827;DHT22;8530;49.540;8.576;2023-07-29T14:58:09;31.30;37.20
16827;DHT22;8530;49.540;8.576;2023-07-29T15:00:37;31.40;37.10
16827;DHT22;8530;49.540;8.576;2023-07-29T15:03:04;31.40;36.90
16827;DHT22;8530;49.540;8.576;2023-07-29T15:05:32;31.30;36.80
16827;DHT22;8530;49.540;8.576;2023-07-29T15:07:59;31.30;36.90
16827;DHT22;8530;49.540;8.576;2023-07-29T15:10:26;31.30;36.80
16827;DHT22;8530;49.540;8.576;2023-07-29T15:12:52;31.10;36.70
16827;DHT22;8530;49.540;8.576;2023-07-29T15:15:19;31.00;36.80
16827;DHT22;8530;49.540;8.576;2023-07-29T15:17:47;30.80;37.00
16827;DHT22;8530;49.540;8.576;2023-07-29T15:20:14;30.50;37.30
16827;DHT22;8530;49.540;8.576;2023-07-29T15:22:41;30.30;37.70
16827;DHT22;8530;49.540;8.576;2023-07-29T15:25:09;30.30;38.00
16827;DHT22;8530;49.540;8.576;2023-07-29T15:27:37;30.30;38.00
16827;DHT22;8530;49.540;8.576;2023-07-29T15:30:05;30.30;38.10
16827;DHT22;8530;49.540;8.576;2023-07-29T15:32:32;30.40;38.20
16827;DHT22;8530;49.540;8.576;2023-07-29T15:35:00;30.40;38.20
16827;DHT22;8530;49.540;8.576;2023-07-29T15:37:27;30.50;38.20
16827;DHT22;8530;49.540;8.576;2023-07-29T15:39:54;30.50;38.10
16827;DHT22;8530;49.540;8.576;2023-07-29T15:42:20;30.50;38.10
16827;DHT22;8530;49.540;8.576;2023-07-29T15:44:47;30.40;38.10
16827;DHT22;8530;49.540;8.576;2023-07-29T15:47:14;30.30;38.30
16827;DHT22;8530;49.540;8.576;2023-07-29T15:49:43;30.00;38.40